sensor_id;sensor_type;location;lat;lon;timestamp;P1;durP1;ratioP1;P2;durP2;ratioP2
16031;SDS011;8120;48.308;8.914;2022-09-06T00:00:25;5.33;;;3.63;;
16031;SDS011;8120;48.308;8.914;2022-09-06T00:02:53;4.90;;;3.60;;
16031;SDS011;8120;48.308;8.914;2022-09-06T00:05:21;6.47;;;3.37;;
16031;SDS011;8120;48.308;8.914;2022-09-06T00:07:49;4.40;;;3.23;;
16031;SDS011;8120;48.308;8.914;2022-09-06T00:10:18;4.97;;;3.80;;
16031;SDS011;8120;48.308;8.914;2022-09-06T00:12:47;7.20;;;4.10;;
16031;SDS011;8120;48.308;8.914;2022-09-06T00:15:15;5.37;;;3.60;;
16031;SDS011;8120;48.308;8.914;2022-09-06T00:17:43;7.10;;;3.60;;
16031;SDS011;8120;48.308;8.914;2022-09-06T00:20:11;4.17;;;3.37;;
16031;SDS011;8120;48.308;8.914;2022-09-06T00:22:39;5.40;;;3.87;;
16031;SDS011;8120;48.308;8.914;2022-09-06T00:25:07;5.63;;;4.13;;
16031;SDS011;8120;48.308;8.914;2022-09-06T00:27:37;7.77;;;4.23;;
16031;SDS011;8120;48.308;8.914;2022-09-06T00:30:06;5.57;;;3.50;;
16031;SDS011;8120;48.308;8.914;2022-09-06T00:32:34;7.30;;;4.30;;
16031;SDS011;8120;48.308;8.914;2022-09-06T00:35:03;5.53;;;4.13;;
16031;SDS011;8120;48.308;8.914;2022-09-06T00:37:32;5.53;;;3.90;;
16031;SDS011;8120;48.308;8.914;2022-09-06T00:39:59;5.50;;;3.90;;
16031;SDS011;8120;48.308;8.914;2022-09-06T00:42:28;5.20;;;3.80;;
16031;SDS011;8120;48.308;8.914;2022-09-06T00:44:57;5.53;;;3.83;;
16031;SDS011;8120;48.308;8.914;2022-09-06T00:47:25;4.33;;;3.27;;
16031;SDS011;8120;48.308;8.914;2022-09-06T00:49:55;5.03;;;3.30;;
16031;SDS011;8120;48.308;8.914;2022-09-06T00:52:25;4.97;;;3.47;;
16031;SDS011;8120;48.308;8.914;2022-09-06T00:54:53;6.47;;;3.90;;
16031;SDS011;8120;48.308;8.914;2022-09-06T00:57:22;4.13;;;3.23;;
16031;SDS011;8120;48.308;8.914;2022-09-06T00:59:52;5.90;;;4.00;;
16031;SDS011;8120;48.308;8.914;2022-09-06T01:02:23;5.40;;;3.43;;
16031;SDS011;8120;48.308;8.914;2022-09-06T01:04:51;5.50;;;3.87;;
16031;SDS011;8120;48.308;8.914;2022-09-06T01:07:26;5.90;;;3.67;;
16031;SDS011;8120;48.308;8.914;2022-09-06T01:10:07;6.33;;;3.30;;
16031;SDS011;8120;48.308;8.914;2022-09-06T01:12:53;4.40;;;3.30;;
16031;SDS011;8120;48.308;8.914;2022-09-06T01:15:32;4.43;;;3.53;;
16031;SDS011;8120;48.308;8.914;2022-09-06T01:18:10;5.87;;;3.37;;
16031;SDS011;8120;48.308;8.914;2022-09-06T01:20:50;4.40;;;3.33;;
16031;SDS011;8120;48.308;8.914;2022-09-06T01:27:07;5.13;;;3.90;;
16031;SDS011;8120;48.308;8.914;2022-09-06T01:30:01;7.43;;;4.27;;
16031;SDS011;8120;48.308;8.914;2022-09-06T01:32:31;4.90;;;3.70;;
16031;SDS011;8120;48.308;8.914;2022-09-06T01:35:05;5.60;;;3.77;;
16031;SDS011;8120;48.308;8.914;2022-09-06T01:37:39;4.77;;;3.47;;
16031;SDS011;8120;48.308;8.914;2022-09-06T01:40:08;6.80;;;3.57;;
16031;SDS011;8120;48.308;8.914;2022-09-06T01:42:36;5.07;;;3.20;;
16031;SDS011;8120;48.308;8.914;2022-09-06T01:45:08;4.27;;;3.30;;
16031;SDS011;8120;48.308;8.914;2022-09-06T01:47:38;4.77;;;3.27;;
16031;SDS011;8120;48.308;8.914;2022-09-06T01:50:25;5.00;;;3.50;;
16031;SDS011;8120;48.308;8.914;2022-09-06T01:53:05;6.17;;;3.87;;
16031;SDS011;8120;48.308;8.914;2022-09-06T01:55:43;6.33;;;3.80;;
16031;SDS011;8120;48.308;8.914;2022-09-06T01:58:23;4.57;;;3.30;;
16031;SDS011;8120;48.308;8.914;2022-09-06T02:01:07;5.67;;;3.40;;
16031;SDS011;8120;48.308;8.914;2022-09-06T02:03:46;5.40;;;3.30;;
16031;SDS011;8120;48.308;8.914;2022-09-06T02:06:21;8.47;;;3.73;;
16031;SDS011;8120;48.308;8.914;2022-09-06T02:08:54;5.50;;;3.67;;
16031;SDS011;8120;48.308;8.914;2022-09-06T02:11:28;5.23;;;3.30;;
16031;SDS011;8120;48.308;8.914;2022-09-06T02:14:06;4.10;;;3.30;;
16031;SDS011;8120;48.308;8.914;2022-09-06T02:16:39;5.63;;;3.70;;
16031;SDS011;8120;48.308;8.914;2022-09-06T02:21:42;5.43;;;3.53;;
16031;SDS011;8120;48.308;8.914;2022-09-06T02:24:14;5.40;;;3.70;;
16031;SDS011;8120;48.308;8.914;2022-09-06T02:26:45;5.50;;;4.07;;
16031;SDS011;8120;48.308;8.914;2022-09-06T02:29:14;5.13;;;3.67;;
16031;SDS011;8120;48.308;8.914;2022-09-06T02:31:46;5.77;;;3.77;;
16031;SDS011;8120;48.308;8.914;2022-09-06T02:34:17;5.77;;;4.00;;
16031;SDS011;8120;48.308;8.914;2022-09-06T02:36:46;4.87;;;3.70;;
16031;SDS011;8120;48.308;8.914;2022-09-06T02:39:14;6.10;;;4.50;;
16031;SDS011;8120;48.308;8.914;2022-09-06T02:41:43;5.47;;;3.63;;
16031;SDS011;8120;48.308;8.914;2022-09-06T02:44:13;7.80;;;3.73;;
16031;SDS011;8120;48.308;8.914;2022-09-06T02:46:41;6.10;;;3.97;;
16031;SDS011;8120;48.308;8.914;2022-09-06T02:49:11;4.60;;;3.50;;
16031;SDS011;8120;48.308;8.914;2022-09-06T02:51:39;4.87;;;3.40;;
16031;SDS011;8120;48.308;8.914;2022-09-06T02:54:07;6.37;;;4.30;;
16031;SDS011;8120;48.308;8.914;2022-09-06T02:56:35;6.93;;;3.67;;
16031;SDS011;8120;48.308;8.914;2022-09-06T02:59:03;4.00;;;3.50;;
16031;SDS011;8120;48.308;8.914;2022-09-06T03:01:32;5.97;;;3.70;;
16031;SDS011;8120;48.308;8.914;2022-09-06T03:04:00;5.10;;;3.60;;
16031;SDS011;8120;48.308;8.914;2022-09-06T03:06:30;5.80;;;3.67;;
16031;SDS011;8120;48.308;8.914;2022-09-06T03:08:58;4.93;;;3.23;;
16031;SDS011;8120;48.308;8.914;2022-09-06T03:11:26;5.47;;;3.47;;
16031;SDS011;8120;48.308;8.914;2022-09-06T03:13:54;5.27;;;3.80;;
16031;SDS011;8120;48.308;8.914;2022-09-06T03:16:22;5.87;;;3.73;;
16031;SDS011;8120;48.308;8.914;2022-09-06T03:18:50;4.27;;;3.37;;
16031;SDS011;8120;48.308;8.914;2022-09-06T03:21:17;5.97;;;3.50;;
16031;SDS011;8120;48.308;8.914;2022-09-06T03:23:47;5.67;;;3.73;;
16031;SDS011;8120;48.308;8.914;2022-09-06T03:26:16;5.07;;;3.13;;
16031;SDS011;8120;48.308;8.914;2022-09-06T03:28:43;5.20;;;3.90;;
16031;SDS011;8120;48.308;8.914;2022-09-06T03:31:11;4.37;;;3.50;;
16031;SDS011;8120;48.308;8.914;2022-09-06T03:33:39;4.87;;;3.70;;
16031;SDS011;8120;48.308;8.914;2022-09-06T03:36:07;8.00;;;4.63;;
16031;SDS011;8120;48.308;8.914;2022-09-06T03:38:35;6.73;;;4.73;;
16031;SDS011;8120;48.308;8.914;2022-09-06T03:41:04;5.87;;;4.03;;
16031;SDS011;8120;48.308;8.914;2022-09-06T03:43:32;6.07;;;3.80;;
16031;SDS011;8120;48.308;8.914;2022-09-06T03:46:00;6.47;;;4.17;;
16031;SDS011;8120;48.308;8.914;2022-09-06T03:48:28;5.87;;;4.33;;
16031;SDS011;8120;48.308;8.914;2022-09-06T03:50:56;5.43;;;4.00;;
16031;SDS011;8120;48.308;8.914;2022-09-06T03:53:25;4.67;;;3.63;;
16031;SDS011;8120;48.308;8.914;2022-09-06T03:55:54;8.97;;;4.60;;
16031;SDS011;8120;48.308;8.914;2022-09-06T03:58:28;7.43;;;4.80;;
16031;SDS011;8120;48.308;8.914;2022-09-06T04:01:01;6.40;;;4.50;;
16031;SDS011;8120;48.308;8.914;2022-09-06T04:03:30;7.73;;;4.27;;
16031;SDS011;8120;48.308;8.914;2022-09-06T04:05:59;6.53;;;4.20;;
16031;SDS011;8120;48.308;8.914;2022-09-06T04:08:27;5.70;;;4.37;;
16031;SDS011;8120;48.308;8.914;2022-09-06T04:10:56;6.27;;;4.37;;
16031;SDS011;8120;48.308;8.914;2022-09-06T04:13:26;6.03;;;4.27;;
16031;SDS011;8120;48.308;8.914;2022-09-06T04:15:55;6.47;;;4.10;;
16031;SDS011;8120;48.308;8.914;2022-09-06T04:18:23;8.73;;;4.93;;
16031;SDS011;8120;48.308;8.914;2022-09-06T04:20:52;6.63;;;4.40;;
16031;SDS011;8120;48.308;8.914;2022-09-06T04:23:22;6.00;;;4.30;;
16031;SDS011;8120;48.308;8.914;2022-09-06T04:25:51;7.13;;;4.53;;
16031;SDS011;8120;48.308;8.914;2022-09-06T04:28:20;7.00;;;4.60;;
16031;SDS011;8120;48.308;8.914;2022-09-06T04:30:52;6.00;;;4.50;;
16031;SDS011;8120;48.308;8.914;2022-09-06T04:33:20;7.67;;;5.67;;
16031;SDS011;8120;48.308;8.914;2022-09-06T04:35:51;7.93;;;4.87;;
16031;SDS011;8120;48.308;8.914;2022-09-06T04:38:19;8.20;;;3.97;;
16031;SDS011;8120;48.308;8.914;2022-09-06T04:40:47;7.23;;;4.83;;
16031;SDS011;8120;48.308;8.914;2022-09-06T04:43:15;6.70;;;4.80;;
16031;SDS011;8120;48.308;8.914;2022-09-06T04:45:43;6.00;;;4.50;;
16031;SDS011;8120;48.308;8.914;2022-09-06T04:48:12;6.80;;;4.83;;
16031;SDS011;8120;48.308;8.914;2022-09-06T04:50:41;6.73;;;4.87;;
16031;SDS011;8120;48.308;8.914;2022-09-06T04:53:09;6.63;;;4.60;;
16031;SDS011;8120;48.308;8.914;2022-09-06T04:55:37;6.00;;;4.00;;
16031;SDS011;8120;48.308;8.914;2022-09-06T04:58:05;5.57;;;4.20;;
16031;SDS011;8120;48.308;8.914;2022-09-06T05:00:33;6.00;;;3.90;;
16031;SDS011;8120;48.308;8.914;2022-09-06T05:03:03;8.37;;;3.80;;
16031;SDS011;8120;48.308;8.914;2022-09-06T05:05:33;6.13;;;3.93;;
16031;SDS011;8120;48.308;8.914;2022-09-06T05:08:01;7.13;;;4.20;;
16031;SDS011;8120;48.308;8.914;2022-09-06T05:10:29;7.37;;;3.77;;
16031;SDS011;8120;48.308;8.914;2022-09-06T05:12:57;6.70;;;3.77;;
16031;SDS011;8120;48.308;8.914;2022-09-06T05:15:25;5.77;;;3.80;;
16031;SDS011;8120;48.308;8.914;2022-09-06T05:17:52;6.43;;;4.20;;
16031;SDS011;8120;48.308;8.914;2022-09-06T05:20:28;8.40;;;4.30;;
16031;SDS011;8120;48.308;8.914;2022-09-06T05:22:58;5.97;;;4.00;;
16031;SDS011;8120;48.308;8.914;2022-09-06T05:25:26;5.87;;;4.03;;
16031;SDS011;8120;48.308;8.914;2022-09-06T05:27:54;7.70;;;4.40;;
16031;SDS011;8120;48.308;8.914;2022-09-06T05:30:22;5.27;;;3.83;;
16031;SDS011;8120;48.308;8.914;2022-09-06T05:32:50;5.33;;;3.93;;
16031;SDS011;8120;48.308;8.914;2022-09-06T05:35:18;7.53;;;3.90;;
16031;SDS011;8120;48.308;8.914;2022-09-06T05:37:45;5.80;;;4.07;;
16031;SDS011;8120;48.308;8.914;2022-09-06T05:40:15;6.97;;;4.00;;
16031;SDS011;8120;48.308;8.914;2022-09-06T05:42:43;9.03;;;3.97;;
16031;SDS011;8120;48.308;8.914;2022-09-06T05:45:10;8.20;;;3.93;;
16031;SDS011;8120;48.308;8.914;2022-09-06T05:47:38;5.67;;;3.47;;
16031;SDS011;8120;48.308;8.914;2022-09-06T05:50:06;5.37;;;3.93;;
16031;SDS011;8120;48.308;8.914;2022-09-06T05:52:35;7.37;;;3.40;;
16031;SDS011;8120;48.308;8.914;2022-09-06T05:55:04;4.57;;;3.33;;
16031;SDS011;8120;48.308;8.914;2022-09-06T05:57:34;8.00;;;4.00;;
16031;SDS011;8120;48.308;8.914;2022-09-06T06:00:02;8.70;;;3.83;;
16031;SDS011;8120;48.308;8.914;2022-09-06T06:02:31;5.53;;;3.57;;
16031;SDS011;8120;48.308;8.914;2022-09-06T06:04:59;5.43;;;3.67;;
16031;SDS011;8120;48.308;8.914;2022-09-06T06:07:27;7.67;;;3.63;;
16031;SDS011;8120;48.308;8.914;2022-09-06T06:09:55;7.40;;;3.77;;
16031;SDS011;8120;48.308;8.914;2022-09-06T06:12:22;4.53;;;3.20;;
16031;SDS011;8120;48.308;8.914;2022-09-06T06:14:52;5.73;;;4.00;;
16031;SDS011;8120;48.308;8.914;2022-09-06T06:17:19;8.93;;;3.83;;
16031;SDS011;8120;48.308;8.914;2022-09-06T06:19:47;6.03;;;3.00;;
16031;SDS011;8120;48.308;8.914;2022-09-06T06:22:15;7.67;;;3.20;;
16031;SDS011;8120;48.308;8.914;2022-09-06T06:24:43;5.83;;;3.27;;
16031;SDS011;8120;48.308;8.914;2022-09-06T06:27:11;5.07;;;3.27;;
16031;SDS011;8120;48.308;8.914;2022-09-06T06:29:39;6.40;;;3.40;;
16031;SDS011;8120;48.308;8.914;2022-09-06T06:32:08;6.53;;;3.40;;
16031;SDS011;8120;48.308;8.914;2022-09-06T06:34:36;8.90;;;3.77;;
16031;SDS011;8120;48.308;8.914;2022-09-06T06:37:04;5.57;;;3.60;;
16031;SDS011;8120;48.308;8.914;2022-09-06T06:39:31;5.23;;;3.60;;
16031;SDS011;8120;48.308;8.914;2022-09-06T06:41:59;7.37;;;3.60;;
16031;SDS011;8120;48.308;8.914;2022-09-06T06:44:27;6.10;;;3.40;;
16031;SDS011;8120;48.308;8.914;2022-09-06T06:46:55;7.20;;;3.50;;
16031;SDS011;8120;48.308;8.914;2022-09-06T06:49:25;6.10;;;3.43;;
16031;SDS011;8120;48.308;8.914;2022-09-06T06:51:53;4.30;;;3.27;;
16031;SDS011;8120;48.308;8.914;2022-09-06T06:54:21;6.17;;;3.80;;
16031;SDS011;8120;48.308;8.914;2022-09-06T06:56:49;5.00;;;3.50;;
16031;SDS011;8120;48.308;8.914;2022-09-06T06:59:17;7.00;;;4.17;;
16031;SDS011;8120;48.308;8.914;2022-09-06T07:01:45;7.43;;;3.57;;
16031;SDS011;8120;48.308;8.914;2022-09-06T07:04:15;7.83;;;3.90;;
16031;SDS011;8120;48.308;8.914;2022-09-06T07:06:48;5.47;;;3.93;;
16031;SDS011;8120;48.308;8.914;2022-09-06T07:09:37;6.33;;;3.77;;
16031;SDS011;8120;48.308;8.914;2022-09-06T07:12:25;8.10;;;4.33;;
16031;SDS011;8120;48.308;8.914;2022-09-06T07:14:53;6.03;;;3.90;;
16031;SDS011;8120;48.308;8.914;2022-09-06T07:17:21;4.97;;;3.57;;
16031;SDS011;8120;48.308;8.914;2022-09-06T07:19:48;9.17;;;4.17;;
16031;SDS011;8120;48.308;8.914;2022-09-06T07:22:38;6.13;;;3.73;;
16031;SDS011;8120;48.308;8.914;2022-09-06T07:25:06;6.20;;;3.73;;
16031;SDS011;8120;48.308;8.914;2022-09-06T07:27:38;7.57;;;3.93;;
16031;SDS011;8120;48.308;8.914;2022-09-06T07:30:14;9.17;;;3.80;;
16031;SDS011;8120;48.308;8.914;2022-09-06T07:32:42;7.73;;;3.50;;
16031;SDS011;8120;48.308;8.914;2022-09-06T07:35:10;5.53;;;3.70;;
16031;SDS011;8120;48.308;8.914;2022-09-06T07:37:40;5.37;;;3.37;;
16031;SDS011;8120;48.308;8.914;2022-09-06T07:40:08;9.40;;;4.10;;
16031;SDS011;8120;48.308;8.914;2022-09-06T07:42:37;7.53;;;3.57;;
16031;SDS011;8120;48.308;8.914;2022-09-06T07:45:05;7.80;;;3.60;;
16031;SDS011;8120;48.308;8.914;2022-09-06T07:47:33;7.78;;;3.85;;
16031;SDS011;8120;48.308;8.914;2022-09-06T07:50:21;7.82;;;4.03;;
16031;SDS011;8120;48.308;8.914;2022-09-06T07:53:10;5.97;;;3.50;;
16031;SDS011;8120;48.308;8.914;2022-09-06T07:55:46;6.60;;;3.42;;
16031;SDS011;8120;48.308;8.914;2022-09-06T07:58:14;6.88;;;3.67;;
16031;SDS011;8120;48.308;8.914;2022-09-06T08:00:42;6.03;;;3.28;;
16031;SDS011;8120;48.308;8.914;2022-09-06T08:03:10;8.82;;;4.15;;
16031;SDS011;8120;48.308;8.914;2022-09-06T08:05:38;5.95;;;3.45;;
16031;SDS011;8120;48.308;8.914;2022-09-06T08:08:27;7.68;;;3.45;;
16031;SDS011;8120;48.308;8.914;2022-09-06T08:11:15;13.93;;;8.30;;
16031;SDS011;8120;48.308;8.914;2022-09-06T08:13:44;9.23;;;4.45;;
16031;SDS011;8120;48.308;8.914;2022-09-06T08:16:15;8.45;;;4.22;;
16031;SDS011;8120;48.308;8.914;2022-09-06T08:18:43;6.22;;;4.25;;
16031;SDS011;8120;48.308;8.914;2022-09-06T08:21:12;8.27;;;4.20;;
16031;SDS011;8120;48.308;8.914;2022-09-06T08:23:43;11.73;;;3.92;;
16031;SDS011;8120;48.308;8.914;2022-09-06T08:26:12;10.77;;;3.80;;
16031;SDS011;8120;48.308;8.914;2022-09-06T08:28:40;9.75;;;4.03;;
16031;SDS011;8120;48.308;8.914;2022-09-06T08:31:09;9.00;;;3.40;;
16031;SDS011;8120;48.308;8.914;2022-09-06T08:33:38;8.88;;;3.85;;
16031;SDS011;8120;48.308;8.914;2022-09-06T08:36:07;10.20;;;3.88;;
16031;SDS011;8120;48.308;8.914;2022-09-06T08:38:36;8.57;;;3.67;;
16031;SDS011;8120;48.308;8.914;2022-09-06T08:41:06;7.75;;;3.15;;
16031;SDS011;8120;48.308;8.914;2022-09-06T08:43:36;7.68;;;3.72;;
16031;SDS011;8120;48.308;8.914;2022-09-06T08:46:05;8.30;;;3.45;;
16031;SDS011;8120;48.308;8.914;2022-09-06T08:48:34;10.88;;;3.35;;
16031;SDS011;8120;48.308;8.914;2022-09-06T08:51:09;7.97;;;3.40;;
16031;SDS011;8120;48.308;8.914;2022-09-06T08:54:05;9.40;;;3.40;;
16031;SDS011;8120;48.308;8.914;2022-09-06T08:56:41;11.68;;;3.50;;
16031;SDS011;8120;48.308;8.914;2022-09-06T08:59:24;11.45;;;3.97;;
16031;SDS011;8120;48.308;8.914;2022-09-06T09:01:54;10.18;;;3.70;;
16031;SDS011;8120;48.308;8.914;2022-09-06T09:04:29;9.32;;;3.95;;
16031;SDS011;8120;48.308;8.914;2022-09-06T09:07:08;9.18;;;3.55;;
16031;SDS011;8120;48.308;8.914;2022-09-06T09:09:50;7.32;;;3.13;;
16031;SDS011;8120;48.308;8.914;2022-09-06T09:12:22;7.22;;;3.38;;
16031;SDS011;8120;48.308;8.914;2022-09-06T09:14:52;9.05;;;3.28;;
16031;SDS011;8120;48.308;8.914;2022-09-06T09:17:24;7.03;;;3.38;;
16031;SDS011;8120;48.308;8.914;2022-09-06T09:19:55;8.20;;;4.13;;
16031;SDS011;8120;48.308;8.914;2022-09-06T09:22:23;9.93;;;3.70;;
16031;SDS011;8120;48.308;8.914;2022-09-06T09:24:51;7.47;;;3.00;;
16031;SDS011;8120;48.308;8.914;2022-09-06T09:27:25;7.88;;;3.10;;
16031;SDS011;8120;48.308;8.914;2022-09-06T09:29:58;9.43;;;3.22;;
16031;SDS011;8120;48.308;8.914;2022-09-06T09:32:48;9.73;;;2.95;;
16031;SDS011;8120;48.308;8.914;2022-09-06T09:35:17;9.75;;;3.05;;
16031;SDS011;8120;48.308;8.914;2022-09-06T09:37:55;7.55;;;3.08;;
16031;SDS011;8120;48.308;8.914;2022-09-06T09:40:36;11.23;;;3.33;;
16031;SDS011;8120;48.308;8.914;2022-09-06T09:43:12;8.30;;;3.05;;
16031;SDS011;8120;48.308;8.914;2022-09-06T09:45:43;9.23;;;3.38;;
16031;SDS011;8120;48.308;8.914;2022-09-06T09:48:15;10.10;;;3.75;;
16031;SDS011;8120;48.308;8.914;2022-09-06T09:50:45;9.60;;;3.28;;
16031;SDS011;8120;48.308;8.914;2022-09-06T09:53:15;7.82;;;3.50;;
16031;SDS011;8120;48.308;8.914;2022-09-06T09:55:44;7.82;;;3.25;;
16031;SDS011;8120;48.308;8.914;2022-09-06T09:58:22;5.28;;;3.13;;
16031;SDS011;8120;48.308;8.914;2022-09-06T10:03:44;8.48;;;3.58;;
16031;SDS011;8120;48.308;8.914;2022-09-06T10:06:32;9.15;;;3.53;;
16031;SDS011;8120;48.308;8.914;2022-09-06T10:09:21;12.13;;;4.07;;
16031;SDS011;8120;48.308;8.914;2022-09-06T10:11:57;13.07;;;3.90;;
16031;SDS011;8120;48.308;8.914;2022-09-06T10:14:29;8.60;;;3.10;;
16031;SDS011;8120;48.308;8.914;2022-09-06T10:16:59;12.13;;;4.13;;
16031;SDS011;8120;48.308;8.914;2022-09-06T10:19:35;7.22;;;3.63;;
16031;SDS011;8120;48.308;8.914;2022-09-06T10:22:21;8.32;;;3.97;;
16031;SDS011;8120;48.308;8.914;2022-09-06T10:25:01;8.88;;;3.72;;
16031;SDS011;8120;48.308;8.914;2022-09-06T10:28:06;8.77;;;3.92;;
16031;SDS011;8120;48.308;8.914;2022-09-06T10:31:00;9.48;;;3.58;;
16031;SDS011;8120;48.308;8.914;2022-09-06T10:33:48;7.15;;;2.80;;
16031;SDS011;8120;48.308;8.914;2022-09-06T10:36:25;9.70;;;3.80;;
16031;SDS011;8120;48.308;8.914;2022-09-06T10:38:59;8.63;;;4.35;;
16031;SDS011;8120;48.308;8.914;2022-09-06T10:41:33;8.85;;;3.60;;
16031;SDS011;8120;48.308;8.914;2022-09-06T10:44:17;10.48;;;3.35;;
16031;SDS011;8120;48.308;8.914;2022-09-06T10:46:58;9.00;;;4.68;;
16031;SDS011;8120;48.308;8.914;2022-09-06T10:49:36;8.68;;;3.97;;
16031;SDS011;8120;48.308;8.914;2022-09-06T10:52:05;12.82;;;3.88;;
16031;SDS011;8120;48.308;8.914;2022-09-06T10:54:35;7.80;;;3.70;;
16031;SDS011;8120;48.308;8.914;2022-09-06T10:57:07;8.73;;;3.20;;
16031;SDS011;8120;48.308;8.914;2022-09-06T11:00:03;9.05;;;3.50;;
16031;SDS011;8120;48.308;8.914;2022-09-06T11:02:39;5.65;;;3.25;;
16031;SDS011;8120;48.308;8.914;2022-09-06T11:05:13;8.57;;;3.17;;
16031;SDS011;8120;48.308;8.914;2022-09-06T11:08:06;7.82;;;3.38;;
16031;SDS011;8120;48.308;8.914;2022-09-06T11:10:58;7.90;;;3.22;;
16031;SDS011;8120;48.308;8.914;2022-09-06T11:13:32;6.35;;;3.30;;
16031;SDS011;8120;48.308;8.914;2022-09-06T11:16:00;6.38;;;3.25;;
16031;SDS011;8120;48.308;8.914;2022-09-06T11:18:35;5.55;;;2.95;;
16031;SDS011;8120;48.308;8.914;2022-09-06T11:24:10;7.28;;;3.03;;
16031;SDS011;8120;48.308;8.914;2022-09-06T11:26:41;8.10;;;3.30;;
16031;SDS011;8120;48.308;8.914;2022-09-06T11:29:15;8.68;;;3.40;;
16031;SDS011;8120;48.308;8.914;2022-09-06T11:31:50;4.30;;;2.78;;
16031;SDS011;8120;48.308;8.914;2022-09-06T11:34:49;9.50;;;3.20;;
16031;SDS011;8120;48.308;8.914;2022-09-06T11:37:22;6.35;;;2.97;;
16031;SDS011;8120;48.308;8.914;2022-09-06T11:45:39;6.82;;;3.03;;
16031;SDS011;8120;48.308;8.914;2022-09-06T11:48:29;6.35;;;3.67;;
16031;SDS011;8120;48.308;8.914;2022-09-06T11:51:02;6.82;;;2.92;;
16031;SDS011;8120;48.308;8.914;2022-09-06T11:53:33;7.28;;;2.45;;
16031;SDS011;8120;48.308;8.914;2022-09-06T11:56:24;6.97;;;3.10;;
16031;SDS011;8120;48.308;8.914;2022-09-06T11:58:56;5.30;;;2.90;;
16031;SDS011;8120;48.308;8.914;2022-09-06T12:01:34;5.20;;;3.15;;
16031;SDS011;8120;48.308;8.914;2022-09-06T12:04:05;5.90;;;3.15;;
16031;SDS011;8120;48.308;8.914;2022-09-06T12:06:38;6.82;;;3.10;;
16031;SDS011;8120;48.308;8.914;2022-09-06T12:09:29;11.27;;;3.17;;
16031;SDS011;8120;48.308;8.914;2022-09-06T12:12:04;5.78;;;2.20;;
16031;SDS011;8120;48.308;8.914;2022-09-06T12:14:32;5.75;;;2.80;;
16031;SDS011;8120;48.308;8.914;2022-09-06T12:19:57;5.20;;;2.50;;
16031;SDS011;8120;48.308;8.914;2022-09-06T12:25:50;6.45;;;3.00;;
16031;SDS011;8120;48.308;8.914;2022-09-06T12:28:26;3.17;;;2.08;;
16031;SDS011;8120;48.308;8.914;2022-09-06T12:31:00;5.50;;;2.50;;
16031;SDS011;8120;48.308;8.914;2022-09-06T12:33:46;7.28;;;2.88;;
16031;SDS011;8120;48.308;8.914;2022-09-06T12:36:14;5.25;;;2.95;;
16031;SDS011;8120;48.308;8.914;2022-09-06T12:38:55;4.97;;;2.78;;
16031;SDS011;8120;48.308;8.914;2022-09-06T12:41:25;6.85;;;2.60;;
16031;SDS011;8120;48.308;8.914;2022-09-06T12:43:54;5.72;;;2.38;;
16031;SDS011;8120;48.308;8.914;2022-09-06T12:46:24;5.57;;;2.45;;
16031;SDS011;8120;48.308;8.914;2022-09-06T12:48:59;4.78;;;2.60;;
16031;SDS011;8120;48.308;8.914;2022-09-06T12:51:28;5.25;;;2.50;;
16031;SDS011;8120;48.308;8.914;2022-09-06T12:53:58;4.50;;;2.33;;
16031;SDS011;8120;48.308;8.914;2022-09-06T12:56:27;4.53;;;2.78;;
16031;SDS011;8120;48.308;8.914;2022-09-06T12:59:11;5.07;;;2.85;;
16031;SDS011;8120;48.308;8.914;2022-09-06T13:01:40;5.10;;;2.90;;
16031;SDS011;8120;48.308;8.914;2022-09-06T13:04:16;9.50;;;2.88;;
16031;SDS011;8120;48.308;8.914;2022-09-06T13:06:59;5.47;;;2.53;;
16031;SDS011;8120;48.308;8.914;2022-09-06T13:09:31;3.60;;;2.30;;
16031;SDS011;8120;48.308;8.914;2022-09-06T13:12:02;6.60;;;2.78;;
16031;SDS011;8120;48.308;8.914;2022-09-06T13:14:32;5.80;;;2.80;;
16031;SDS011;8120;48.308;8.914;2022-09-06T13:17:01;6.57;;;2.80;;
16031;SDS011;8120;48.308;8.914;2022-09-06T13:19:31;4.53;;;2.70;;
16031;SDS011;8120;48.308;8.914;2022-09-06T13:22:01;5.10;;;2.60;;
16031;SDS011;8120;48.308;8.914;2022-09-06T13:24:40;4.32;;;2.25;;
16031;SDS011;8120;48.308;8.914;2022-09-06T13:27:22;3.88;;;2.40;;
16031;SDS011;8120;48.308;8.914;2022-09-06T13:29:55;5.47;;;2.35;;
16031;SDS011;8120;48.308;8.914;2022-09-06T13:32:24;5.43;;;2.60;;
16031;SDS011;8120;48.308;8.914;2022-09-06T13:34:53;4.65;;;2.42;;
16031;SDS011;8120;48.308;8.914;2022-09-06T13:37:23;5.38;;;2.40;;
16031;SDS011;8120;48.308;8.914;2022-09-06T13:39:53;5.82;;;2.90;;
16031;SDS011;8120;48.308;8.914;2022-09-06T13:42:23;4.93;;;2.92;;
16031;SDS011;8120;48.308;8.914;2022-09-06T13:44:53;4.43;;;2.70;;
16031;SDS011;8120;48.308;8.914;2022-09-06T13:47:27;6.47;;;3.17;;
16031;SDS011;8120;48.308;8.914;2022-09-06T13:49:55;5.10;;;3.22;;
16031;SDS011;8120;48.308;8.914;2022-09-06T13:52:23;6.03;;;2.92;;
16031;SDS011;8120;48.308;8.914;2022-09-06T13:54:52;4.20;;;2.92;;
16031;SDS011;8120;48.308;8.914;2022-09-06T13:57:20;5.18;;;3.30;;
16031;SDS011;8120;48.308;8.914;2022-09-06T13:59:49;5.53;;;3.50;;
16031;SDS011;8120;48.308;8.914;2022-09-06T14:02:17;7.25;;;3.58;;
16031;SDS011;8120;48.308;8.914;2022-09-06T14:04:46;6.18;;;2.90;;
16031;SDS011;8120;48.308;8.914;2022-09-06T14:07:15;6.43;;;2.80;;
16031;SDS011;8120;48.308;8.914;2022-09-06T14:09:43;4.40;;;1.77;;
16031;SDS011;8120;48.308;8.914;2022-09-06T14:12:13;4.97;;;1.73;;
16031;SDS011;8120;48.308;8.914;2022-09-06T14:14:41;3.03;;;1.77;;
16031;SDS011;8120;48.308;8.914;2022-09-06T14:17:10;4.93;;;2.30;;
16031;SDS011;8120;48.308;8.914;2022-09-06T14:19:38;5.05;;;1.77;;
16031;SDS011;8120;48.308;8.914;2022-09-06T14:22:06;5.00;;;2.30;;
16031;SDS011;8120;48.308;8.914;2022-09-06T14:24:34;3.88;;;2.03;;
16031;SDS011;8120;48.308;8.914;2022-09-06T14:27:02;3.20;;;2.03;;
16031;SDS011;8120;48.308;8.914;2022-09-06T14:29:33;3.28;;;1.92;;
16031;SDS011;8120;48.308;8.914;2022-09-06T14:32:02;4.38;;;1.80;;
16031;SDS011;8120;48.308;8.914;2022-09-06T14:34:30;2.78;;;2.03;;
16031;SDS011;8120;48.308;8.914;2022-09-06T14:36:57;6.60;;;1.70;;
16031;SDS011;8120;48.308;8.914;2022-09-06T14:39:25;4.07;;;1.83;;
16031;SDS011;8120;48.308;8.914;2022-09-06T14:41:53;4.95;;;2.30;;
16031;SDS011;8120;48.308;8.914;2022-09-06T14:44:21;3.03;;;1.67;;
16031;SDS011;8120;48.308;8.914;2022-09-06T14:46:50;5.68;;;2.15;;
16031;SDS011;8120;48.308;8.914;2022-09-06T14:49:19;6.07;;;2.15;;
16031;SDS011;8120;48.308;8.914;2022-09-06T14:51:50;2.88;;;1.90;;
16031;SDS011;8120;48.308;8.914;2022-09-06T14:54:18;4.97;;;1.92;;
16031;SDS011;8120;48.308;8.914;2022-09-06T14:56:52;1.67;;;1.50;;
16031;SDS011;8120;48.308;8.914;2022-09-06T14:59:20;4.22;;;2.20;;
16031;SDS011;8120;48.308;8.914;2022-09-06T15:01:48;3.03;;;1.55;;
16031;SDS011;8120;48.308;8.914;2022-09-06T15:04:17;2.70;;;1.88;;
16031;SDS011;8120;48.308;8.914;2022-09-06T15:06:45;3.83;;;1.98;;
16031;SDS011;8120;48.308;8.914;2022-09-06T15:09:15;6.32;;;2.10;;
16031;SDS011;8120;48.308;8.914;2022-09-06T15:11:44;4.10;;;1.90;;
16031;SDS011;8120;48.308;8.914;2022-09-06T15:14:14;2.83;;;1.80;;
16031;SDS011;8120;48.308;8.914;2022-09-06T15:16:43;3.35;;;2.20;;
16031;SDS011;8120;48.308;8.914;2022-09-06T15:19:14;5.13;;;1.70;;
16031;SDS011;8120;48.308;8.914;2022-09-06T15:21:43;3.95;;;2.05;;
16031;SDS011;8120;48.308;8.914;2022-09-06T15:24:12;3.53;;;2.20;;
16031;SDS011;8120;48.308;8.914;2022-09-06T15:26:40;2.40;;;2.03;;
16031;SDS011;8120;48.308;8.914;2022-09-06T15:29:09;3.80;;;2.15;;
16031;SDS011;8120;48.308;8.914;2022-09-06T15:31:37;3.63;;;2.00;;
16031;SDS011;8120;48.308;8.914;2022-09-06T15:34:06;2.88;;;1.92;;
16031;SDS011;8120;48.308;8.914;2022-09-06T15:36:35;3.05;;;2.25;;
16031;SDS011;8120;48.308;8.914;2022-09-06T15:39:04;5.45;;;2.00;;
16031;SDS011;8120;48.308;8.914;2022-09-06T15:41:33;3.03;;;2.15;;
16031;SDS011;8120;48.308;8.914;2022-09-06T15:44:04;4.30;;;2.05;;
16031;SDS011;8120;48.308;8.914;2022-09-06T15:46:42;5.70;;;2.15;;
16031;SDS011;8120;48.308;8.914;2022-09-06T15:49:12;4.68;;;1.90;;
16031;SDS011;8120;48.308;8.914;2022-09-06T15:51:42;3.72;;;1.85;;